sensor_id;sensor_type;location;lat;lon;timestamp;P1;durP1;ratioP1;P2;durP2;ratioP2
63394;SDS011;49531;-34.520;150.798;2022-08-19T00:02:01;2.88;;;1.05;;
63394;SDS011;49531;-34.520;150.798;2022-08-19T00:04:30;1.35;;;1.10;;
63394;SDS011;49531;-34.520;150.798;2022-08-19T00:07:00;1.92;;;1.20;;
63394;SDS011;49531;-34.520;150.798;2022-08-19T00:09:28;1.10;;;1.00;;
63394;SDS011;49531;-34.520;150.798;2022-08-19T00:11:56;1.60;;;1.00;;
63394;SDS011;49531;-34.520;150.798;2022-08-19T00:14:24;1.20;;;1.10;;
63394;SDS011;49531;-34.520;150.798;2022-08-19T00:16:52;1.48;;;1.02;;
63394;SDS011;49531;-34.520;150.798;2022-08-19T00:19:20;1.38;;;0.98;;
63394;SDS011;49531;-34.520;150.798;2022-08-19T00:21:48;3.72;;;1.00;;
63394;SDS011;49531;-34.520;150.798;2022-08-19T00:24:16;1.20;;;1.10;;
63394;SDS011;49531;-34.520;150.798;2022-08-19T00:26:43;1.20;;;0.98;;
63394;SDS011;49531;-34.520;150.798;2022-08-19T00:29:11;1.27;;;1.10;;
63394;SDS011;49531;-34.520;150.798;2022-08-19T00:31:40;1.30;;;0.98;;
63394;SDS011;49531;-34.520;150.798;2022-08-19T00:34:08;1.00;;;0.90;;
63394;SDS011;49531;-34.520;150.798;2022-08-19T00:36:37;1.02;;;0.90;;
63394;SDS011;49531;-34.520;150.798;2022-08-19T00:39:04;2.63;;;0.90;;
63394;SDS011;49531;-34.520;150.798;2022-08-19T00:41:32;1.30;;;0.80;;
63394;SDS011;49531;-34.520;150.798;2022-08-19T00:44:00;2.45;;;0.80;;
63394;SDS011;49531;-34.520;150.798;2022-08-19T00:46:34;0.98;;;0.70;;
63394;SDS011;49531;-34.520;150.798;2022-08-19T00:49:06;3.05;;;0.70;;
63394;SDS011;49531;-34.520;150.798;2022-08-19T00:51:57;0.55;;;0.55;;
63394;SDS011;49531;-34.520;150.798;2022-08-19T00:54:35;0.60;;;0.60;;
63394;SDS011;49531;-34.520;150.798;2022-08-19T00:57:06;0.50;;;0.50;;
63394;SDS011;49531;-34.520;150.798;2022-08-19T00:59:38;0.52;;;0.40;;
63394;SDS011;49531;-34.520;150.798;2022-08-19T01:02:08;2.47;;;0.75;;
63394;SDS011;49531;-34.520;150.798;2022-08-19T01:04:35;1.83;;;0.80;;
63394;SDS011;49531;-34.520;150.798;2022-08-19T01:07:02;2.60;;;0.90;;
63394;SDS011;49531;-34.520;150.798;2022-08-19T01:09:29;2.35;;;0.80;;
63394;SDS011;49531;-34.520;150.798;2022-08-19T01:11:57;2.78;;;0.88;;
63394;SDS011;49531;-34.520;150.798;2022-08-19T01:14:24;1.90;;;0.80;;
63394;SDS011;49531;-34.520;150.798;2022-08-19T01:16:52;2.05;;;0.70;;
63394;SDS011;49531;-34.520;150.798;2022-08-19T01:19:31;0.75;;;0.63;;
63394;SDS011;49531;-34.520;150.798;2022-08-19T01:24:51;3.40;;;0.60;;
63394;SDS011;49531;-34.520;150.798;2022-08-19T01:27:18;0.50;;;0.50;;
63394;SDS011;49531;-34.520;150.798;2022-08-19T01:29:45;2.00;;;0.52;;
63394;SDS011;49531;-34.520;150.798;2022-08-19T01:32:15;1.63;;;0.70;;
63394;SDS011;49531;-34.520;150.798;2022-08-19T01:34:45;2.15;;;0.60;;
63394;SDS011;49531;-34.520;150.798;2022-08-19T01:37:12;3.13;;;0.80;;
63394;SDS011;49531;-34.520;150.798;2022-08-19T01:39:40;0.60;;;0.60;;
63394;SDS011;49531;-34.520;150.798;2022-08-19T01:42:08;0.70;;;0.60;;
63394;SDS011;49531;-34.520;150.798;2022-08-19T01:44:39;2.42;;;0.70;;
63394;SDS011;49531;-34.520;150.798;2022-08-19T01:47:07;0.55;;;0.50;;
63394;SDS011;49531;-34.520;150.798;2022-08-19T01:49:35;0.90;;;0.60;;
63394;SDS011;49531;-34.520;150.798;2022-08-19T01:52:04;0.40;;;0.40;;
63394;SDS011;49531;-34.520;150.798;2022-08-19T01:54:31;0.35;;;0.35;;
63394;SDS011;49531;-34.520;150.798;2022-08-19T01:57:03;2.53;;;0.30;;
63394;SDS011;49531;-34.520;150.798;2022-08-19T01:59:34;0.30;;;0.30;;
63394;SDS011;49531;-34.520;150.798;2022-08-19T02:02:02;0.20;;;0.20;;
63394;SDS011;49531;-34.520;150.798;2022-08-19T02:04:33;0.20;;;0.17;;
63394;SDS011;49531;-34.520;150.798;2022-08-19T02:07:01;0.20;;;0.20;;
63394;SDS011;49531;-34.520;150.798;2022-08-19T02:09:28;0.85;;;0.20;;
63394;SDS011;49531;-34.520;150.798;2022-08-19T02:11:57;0.17;;;0.10;;
63394;SDS011;49531;-34.520;150.798;2022-08-19T02:14:24;0.10;;;0.10;;
63394;SDS011;49531;-34.520;150.798;2022-08-19T02:16:51;0.20;;;0.20;;
63394;SDS011;49531;-34.520;150.798;2022-08-19T02:19:18;0.30;;;0.10;;
63394;SDS011;49531;-34.520;150.798;2022-08-19T02:21:46;0.28;;;0.20;;
63394;SDS011;49531;-34.520;150.798;2022-08-19T02:24:13;2.08;;;0.20;;
63394;SDS011;49531;-34.520;150.798;2022-08-19T02:26:40;0.10;;;0.10;;
63394;SDS011;49531;-34.520;150.798;2022-08-19T02:29:07;1.08;;;0.20;;
63394;SDS011;49531;-34.520;150.798;2022-08-19T02:31:34;0.25;;;0.25;;
63394;SDS011;49531;-34.520;150.798;2022-08-19T02:34:01;1.20;;;0.20;;
63394;SDS011;49531;-34.520;150.798;2022-08-19T02:36:28;0.28;;;0.28;;
63394;SDS011;49531;-34.520;150.798;2022-08-19T02:38:56;1.10;;;0.20;;
63394;SDS011;49531;-34.520;150.798;2022-08-19T02:41:24;0.20;;;0.20;;
63394;SDS011;49531;-34.520;150.798;2022-08-19T02:43:54;0.20;;;0.20;;
63394;SDS011;49531;-34.520;150.798;2022-08-19T02:46:25;0.20;;;0.20;;
63394;SDS011;49531;-34.520;150.798;2022-08-19T02:48:58;0.32;;;0.20;;
63394;SDS011;49531;-34.520;150.798;2022-08-19T02:51:31;0.57;;;0.40;;
63394;SDS011;49531;-34.520;150.798;2022-08-19T02:54:01;0.30;;;0.30;;
63394;SDS011;49531;-34.520;150.798;2022-08-19T02:56:30;0.30;;;0.30;;
63394;SDS011;49531;-34.520;150.798;2022-08-19T02:58:57;0.40;;;0.40;;
63394;SDS011;49531;-34.520;150.798;2022-08-19T03:01:28;0.20;;;0.20;;
63394;SDS011;49531;-34.520;150.798;2022-08-19T03:03:59;0.30;;;0.30;;
63394;SDS011;49531;-34.520;150.798;2022-08-19T03:06:30;1.88;;;0.30;;
63394;SDS011;49531;-34.520;150.798;2022-08-19T03:08:58;0.32;;;0.30;;
63394;SDS011;49531;-34.520;150.798;2022-08-19T03:11:26;0.45;;;0.20;;
63394;SDS011;49531;-34.520;150.798;2022-08-19T03:13:56;0.20;;;0.20;;
63394;SDS011;49531;-34.520;150.798;2022-08-19T03:16:24;0.30;;;0.30;;
63394;SDS011;49531;-34.520;150.798;2022-08-19T03:18:55;0.30;;;0.30;;
63394;SDS011;49531;-34.520;150.798;2022-08-19T03:21:27;0.30;;;0.30;;
63394;SDS011;49531;-34.520;150.798;2022-08-19T03:23:58;0.20;;;0.20;;
63394;SDS011;49531;-34.520;150.798;2022-08-19T03:26:30;0.20;;;0.20;;
63394;SDS011;49531;-34.520;150.798;2022-08-19T03:29:00;0.30;;;0.30;;
63394;SDS011;49531;-34.520;150.798;2022-08-19T03:31:29;1.02;;;0.30;;
63394;SDS011;49531;-34.520;150.798;2022-08-19T03:33:56;0.30;;;0.30;;
63394;SDS011;49531;-34.520;150.798;2022-08-19T03:36:25;0.22;;;0.20;;
63394;SDS011;49531;-34.520;150.798;2022-08-19T03:38:54;0.20;;;0.20;;
63394;SDS011;49531;-34.520;150.798;2022-08-19T03:41:25;0.30;;;0.30;;
63394;SDS011;49531;-34.520;150.798;2022-08-19T03:43:57;0.28;;;0.20;;
63394;SDS011;49531;-34.520;150.798;2022-08-19T03:46:26;0.20;;;0.20;;
63394;SDS011;49531;-34.520;150.798;2022-08-19T03:48:55;1.75;;;0.28;;
63394;SDS011;49531;-34.520;150.798;2022-08-19T03:51:27;0.30;;;0.30;;
63394;SDS011;49531;-34.520;150.798;2022-08-19T03:53:57;0.65;;;0.20;;
63394;SDS011;49531;-34.520;150.798;2022-08-19T03:56:26;4.45;;;0.40;;
63394;SDS011;49531;-34.520;150.798;2022-08-19T03:58:54;1.85;;;0.40;;
63394;SDS011;49531;-34.520;150.798;2022-08-19T04:01:24;1.25;;;0.50;;
63394;SDS011;49531;-34.520;150.798;2022-08-19T04:03:52;3.17;;;0.30;;
63394;SDS011;49531;-34.520;150.798;2022-08-19T04:06:22;2.47;;;0.30;;
63394;SDS011;49531;-34.520;150.798;2022-08-19T04:08:56;0.63;;;0.25;;
63394;SDS011;49531;-34.520;150.798;2022-08-19T04:11:28;0.57;;;0.30;;
63394;SDS011;49531;-34.520;150.798;2022-08-19T04:14:15;0.32;;;0.20;;
63394;SDS011;49531;-34.520;150.798;2022-08-19T04:16:44;0.57;;;0.20;;
63394;SDS011;49531;-34.520;150.798;2022-08-19T04:19:12;0.28;;;0.28;;
63394;SDS011;49531;-34.520;150.798;2022-08-19T04:21:42;4.85;;;4.10;;
63394;SDS011;49531;-34.520;150.798;2022-08-19T04:24:13;6.25;;;3.30;;
63394;SDS011;49531;-34.520;150.798;2022-08-19T04:26:41;1.10;;;1.00;;
63394;SDS011;49531;-34.520;150.798;2022-08-19T04:29:10;2.63;;;1.00;;
63394;SDS011;49531;-34.520;150.798;2022-08-19T04:31:45;3.42;;;1.10;;
63394;SDS011;49531;-34.520;150.798;2022-08-19T04:34:13;7.90;;;1.30;;
63394;SDS011;49531;-34.520;150.798;2022-08-19T04:36:42;5.75;;;1.20;;
63394;SDS011;49531;-34.520;150.798;2022-08-19T04:39:11;3.55;;;1.10;;
63394;SDS011;49531;-34.520;150.798;2022-08-19T04:41:43;6.67;;;1.40;;
63394;SDS011;49531;-34.520;150.798;2022-08-19T04:44:30;2.92;;;0.98;;
63394;SDS011;49531;-34.520;150.798;2022-08-19T04:46:58;6.35;;;1.13;;
63394;SDS011;49531;-34.520;150.798;2022-08-19T04:49:25;4.55;;;1.23;;
63394;SDS011;49531;-34.520;150.798;2022-08-19T04:51:53;3.15;;;0.95;;
63394;SDS011;49531;-34.520;150.798;2022-08-19T04:54:22;2.47;;;0.90;;
63394;SDS011;49531;-34.520;150.798;2022-08-19T04:56:51;5.32;;;1.10;;
63394;SDS011;49531;-34.520;150.798;2022-08-19T04:59:19;4.07;;;1.00;;
63394;SDS011;49531;-34.520;150.798;2022-08-19T05:01:47;2.97;;;0.80;;
63394;SDS011;49531;-34.520;150.798;2022-08-19T05:04:16;3.13;;;0.90;;
63394;SDS011;49531;-34.520;150.798;2022-08-19T05:06:48;6.65;;;0.85;;
63394;SDS011;49531;-34.520;150.798;2022-08-19T05:09:17;4.15;;;0.68;;
63394;SDS011;49531;-34.520;150.798;2022-08-19T05:11:44;1.48;;;0.80;;
63394;SDS011;49531;-34.520;150.798;2022-08-19T05:14:11;3.03;;;0.90;;
63394;SDS011;49531;-34.520;150.798;2022-08-19T05:16:39;3.58;;;0.80;;
63394;SDS011;49531;-34.520;150.798;2022-08-19T05:19:06;1.52;;;0.80;;
63394;SDS011;49531;-34.520;150.798;2022-08-19T05:21:52;1.75;;;0.70;;
63394;SDS011;49531;-34.520;150.798;2022-08-19T05:24:37;3.00;;;0.65;;
63394;SDS011;49531;-34.520;150.798;2022-08-19T05:27:04;1.25;;;0.50;;
63394;SDS011;49531;-34.520;150.798;2022-08-19T05:29:32;2.95;;;0.65;;
63394;SDS011;49531;-34.520;150.798;2022-08-19T05:32:03;3.58;;;0.75;;
63394;SDS011;49531;-34.520;150.798;2022-08-19T05:34:34;1.10;;;0.60;;
63394;SDS011;49531;-34.520;150.798;2022-08-19T05:37:01;1.05;;;0.50;;
63394;SDS011;49531;-34.520;150.798;2022-08-19T05:39:31;0.47;;;0.40;;
63394;SDS011;49531;-34.520;150.798;2022-08-19T05:42:01;1.35;;;0.60;;
63394;SDS011;49531;-34.520;150.798;2022-08-19T05:44:32;1.70;;;0.50;;
63394;SDS011;49531;-34.520;150.798;2022-08-19T05:47:03;1.15;;;0.50;;
63394;SDS011;49531;-34.520;150.798;2022-08-19T05:49:31;1.00;;;0.57;;
63394;SDS011;49531;-34.520;150.798;2022-08-19T05:52:01;0.60;;;0.60;;
63394;SDS011;49531;-34.520;150.798;2022-08-19T05:54:30;0.63;;;0.50;;
63394;SDS011;49531;-34.520;150.798;2022-08-19T05:56:59;0.75;;;0.52;;
63394;SDS011;49531;-34.520;150.798;2022-08-19T05:59:28;2.22;;;0.60;;
63394;SDS011;49531;-34.520;150.798;2022-08-19T06:01:55;0.68;;;0.52;;
63394;SDS011;49531;-34.520;150.798;2022-08-19T06:04:23;1.23;;;0.63;;
63394;SDS011;49531;-34.520;150.798;2022-08-19T06:06:51;0.82;;;0.50;;
63394;SDS011;49531;-34.520;150.798;2022-08-19T06:09:19;0.80;;;0.57;;
63394;SDS011;49531;-34.520;150.798;2022-08-19T06:11:49;1.00;;;0.60;;
63394;SDS011;49531;-34.520;150.798;2022-08-19T06:14:23;0.52;;;0.40;;
63394;SDS011;49531;-34.520;150.798;2022-08-19T06:16:51;0.50;;;0.50;;
63394;SDS011;49531;-34.520;150.798;2022-08-19T06:19:19;0.65;;;0.40;;
63394;SDS011;49531;-34.520;150.798;2022-08-19T06:21:48;0.52;;;0.40;;
63394;SDS011;49531;-34.520;150.798;2022-08-19T06:24:18;2.05;;;0.50;;
63394;SDS011;49531;-34.520;150.798;2022-08-19T06:26:48;1.23;;;0.32;;
63394;SDS011;49531;-34.520;150.798;2022-08-19T06:29:18;2.60;;;0.30;;
63394;SDS011;49531;-34.520;150.798;2022-08-19T06:31:47;1.88;;;0.30;;
63394;SDS011;49531;-34.520;150.798;2022-08-19T06:34:15;0.32;;;0.32;;
63394;SDS011;49531;-34.520;150.798;2022-08-19T06:36:47;0.30;;;0.30;;
63394;SDS011;49531;-34.520;150.798;2022-08-19T06:39:17;0.35;;;0.35;;
63394;SDS011;49531;-34.520;150.798;2022-08-19T06:41:48;0.30;;;0.30;;
63394;SDS011;49531;-34.520;150.798;2022-08-19T06:44:20;0.45;;;0.40;;
63394;SDS011;49531;-34.520;150.798;2022-08-19T06:46:49;0.40;;;0.40;;
63394;SDS011;49531;-34.520;150.798;2022-08-19T06:49:16;0.32;;;0.30;;
63394;SDS011;49531;-34.520;150.798;2022-08-19T06:51:44;0.35;;;0.35;;
63394;SDS011;49531;-34.520;150.798;2022-08-19T06:54:13;0.35;;;0.30;;
63394;SDS011;49531;-34.520;150.798;2022-08-19T06:56:42;0.50;;;0.40;;
63394;SDS011;49531;-34.520;150.798;2022-08-19T06:59:12;0.30;;;0.30;;
63394;SDS011;49531;-34.520;150.798;2022-08-19T07:01:47;0.32;;;0.32;;
63394;SDS011;49531;-34.520;150.798;2022-08-19T07:06:46;0.93;;;0.40;;
63394;SDS011;49531;-34.520;150.798;2022-08-19T07:09:15;1.95;;;0.50;;
63394;SDS011;49531;-34.520;150.798;2022-08-19T07:11:44;0.80;;;0.60;;
63394;SDS011;49531;-34.520;150.798;2022-08-19T07:14:17;0.93;;;0.67;;
63394;SDS011;49531;-34.520;150.798;2022-08-19T07:16:45;1.80;;;0.70;;
63394;SDS011;49531;-34.520;150.798;2022-08-19T07:19:15;0.70;;;0.70;;
63394;SDS011;49531;-34.520;150.798;2022-08-19T07:21:43;0.98;;;0.60;;
63394;SDS011;49531;-34.520;150.798;2022-08-19T07:24:11;0.82;;;0.60;;
63394;SDS011;49531;-34.520;150.798;2022-08-19T07:26:40;0.50;;;0.50;;
63394;SDS011;49531;-34.520;150.798;2022-08-19T07:29:09;0.80;;;0.50;;
63394;SDS011;49531;-34.520;150.798;2022-08-19T07:31:37;0.50;;;0.50;;
63394;SDS011;49531;-34.520;150.798;2022-08-19T07:34:05;0.40;;;0.40;;
63394;SDS011;49531;-34.520;150.798;2022-08-19T07:36:35;1.13;;;0.47;;
63394;SDS011;49531;-34.520;150.798;2022-08-19T07:39:07;0.70;;;0.50;;
63394;SDS011;49531;-34.520;150.798;2022-08-19T07:41:37;0.85;;;0.40;;
63394;SDS011;49531;-34.520;150.798;2022-08-19T07:44:05;0.68;;;0.60;;
63394;SDS011;49531;-34.520;150.798;2022-08-19T07:46:34;0.50;;;0.50;;
63394;SDS011;49531;-34.520;150.798;2022-08-19T07:49:05;0.93;;;0.60;;
63394;SDS011;49531;-34.520;150.798;2022-08-19T07:51:34;0.90;;;0.63;;
63394;SDS011;49531;-34.520;150.798;2022-08-19T07:54:01;0.63;;;0.60;;
63394;SDS011;49531;-34.520;150.798;2022-08-19T07:56:31;0.60;;;0.60;;
63394;SDS011;49531;-34.520;150.798;2022-08-19T07:58:58;0.93;;;0.60;;
63394;SDS011;49531;-34.520;150.798;2022-08-19T08:01:26;0.60;;;0.60;;
63394;SDS011;49531;-34.520;150.798;2022-08-19T08:03:54;0.70;;;0.70;;
63394;SDS011;49531;-34.520;150.798;2022-08-19T08:06:40;1.42;;;0.80;;
63394;SDS011;49531;-34.520;150.798;2022-08-19T08:09:33;0.52;;;0.52;;
63394;SDS011;49531;-34.520;150.798;2022-08-19T08:12:04;1.70;;;0.57;;
63394;SDS011;49531;-34.520;150.798;2022-08-19T08:14:47;0.60;;;0.60;;
63394;SDS011;49531;-34.520;150.798;2022-08-19T08:17:18;2.28;;;0.50;;
63394;SDS011;49531;-34.520;150.798;2022-08-19T08:19:46;1.42;;;0.70;;
63394;SDS011;49531;-34.520;150.798;2022-08-19T08:22:17;0.52;;;0.52;;
63394;SDS011;49531;-34.520;150.798;2022-08-19T08:25:23;1.13;;;0.70;;
63394;SDS011;49531;-34.520;150.798;2022-08-19T08:27:50;0.93;;;0.70;;
63394;SDS011;49531;-34.520;150.798;2022-08-19T08:30:19;2.38;;;0.70;;
63394;SDS011;49531;-34.520;150.798;2022-08-19T08:32:48;0.57;;;0.57;;
63394;SDS011;49531;-34.520;150.798;2022-08-19T08:35:17;2.05;;;0.60;;
63394;SDS011;49531;-34.520;150.798;2022-08-19T08:37:47;0.80;;;0.70;;
63394;SDS011;49531;-34.520;150.798;2022-08-19T08:40:21;0.50;;;0.50;;
63394;SDS011;49531;-34.520;150.798;2022-08-19T08:43:04;0.63;;;0.50;;
63394;SDS011;49531;-34.520;150.798;2022-08-19T08:45:42;0.57;;;0.50;;
63394;SDS011;49531;-34.520;150.798;2022-08-19T08:48:18;0.68;;;0.60;;
63394;SDS011;49531;-34.520;150.798;2022-08-19T08:51:11;0.55;;;0.55;;
63394;SDS011;49531;-34.520;150.798;2022-08-19T08:53:46;0.50;;;0.50;;
63394;SDS011;49531;-34.520;150.798;2022-08-19T08:56:17;0.75;;;0.50;;
63394;SDS011;49531;-34.520;150.798;2022-08-19T08:59:03;0.93;;;0.60;;
63394;SDS011;49531;-34.520;150.798;2022-08-19T09:01:35;0.70;;;0.60;;
63394;SDS011;49531;-34.520;150.798;2022-08-19T09:04:06;0.60;;;0.60;;
63394;SDS011;49531;-34.520;150.798;2022-08-19T09:06:46;0.50;;;0.50;;
63394;SDS011;49531;-34.520;150.798;2022-08-19T09:09:40;0.52;;;0.52;;
63394;SDS011;49531;-34.520;150.798;2022-08-19T09:12:24;0.50;;;0.50;;
63394;SDS011;49531;-34.520;150.798;2022-08-19T09:15:10;0.50;;;0.50;;
63394;SDS011;49531;-34.520;150.798;2022-08-19T09:17:40;0.50;;;0.50;;
63394;SDS011;49531;-34.520;150.798;2022-08-19T09:22:39;0.73;;;0.60;;
63394;SDS011;49531;-34.520;150.798;2022-08-19T09:25:12;1.25;;;0.60;;
63394;SDS011;49531;-34.520;150.798;2022-08-19T09:27:41;0.63;;;0.63;;
63394;SDS011;49531;-34.520;150.798;2022-08-19T09:30:11;0.50;;;0.50;;
63394;SDS011;49531;-34.520;150.798;2022-08-19T09:32:40;0.60;;;0.60;;
63394;SDS011;49531;-34.520;150.798;2022-08-19T09:35:08;0.52;;;0.52;;
63394;SDS011;49531;-34.520;150.798;2022-08-19T09:37:36;0.65;;;0.65;;
63394;SDS011;49531;-34.520;150.798;2022-08-19T09:40:03;0.65;;;0.65;;
63394;SDS011;49531;-34.520;150.798;2022-08-19T09:42:31;0.77;;;0.70;;
63394;SDS011;49531;-34.520;150.798;2022-08-19T09:44:59;1.48;;;0.85;;
63394;SDS011;49531;-34.520;150.798;2022-08-19T09:47:28;1.42;;;0.85;;
63394;SDS011;49531;-34.520;150.798;2022-08-19T09:49:55;0.82;;;0.80;;
63394;SDS011;49531;-34.520;150.798;2022-08-19T09:52:22;1.77;;;1.00;;
63394;SDS011;49531;-34.520;150.798;2022-08-19T09:54:51;2.20;;;1.02;;
63394;SDS011;49531;-34.520;150.798;2022-08-19T09:57:19;1.75;;;1.00;;
63394;SDS011;49531;-34.520;150.798;2022-08-19T09:59:46;1.10;;;1.00;;
63394;SDS011;49531;-34.520;150.798;2022-08-19T10:02:13;1.00;;;1.00;;
63394;SDS011;49531;-34.520;150.798;2022-08-19T10:04:40;1.00;;;0.90;;
63394;SDS011;49531;-34.520;150.798;2022-08-19T10:07:25;1.05;;;0.95;;
63394;SDS011;49531;-34.520;150.798;2022-08-19T10:09:52;1.15;;;1.05;;
63394;SDS011;49531;-34.520;150.798;2022-08-19T10:12:19;2.80;;;1.00;;
63394;SDS011;49531;-34.520;150.798;2022-08-19T10:14:47;1.08;;;0.90;;
63394;SDS011;49531;-34.520;150.798;2022-08-19T10:17:16;1.23;;;0.95;;
63394;SDS011;49531;-34.520;150.798;2022-08-19T10:19:43;0.90;;;0.80;;
63394;SDS011;49531;-34.520;150.798;2022-08-19T10:22:11;1.05;;;0.95;;
63394;SDS011;49531;-34.520;150.798;2022-08-19T10:24:39;0.90;;;0.80;;
63394;SDS011;49531;-34.520;150.798;2022-08-19T10:27:06;1.55;;;0.90;;
63394;SDS011;49531;-34.520;150.798;2022-08-19T10:29:35;0.80;;;0.80;;
63394;SDS011;49531;-34.520;150.798;2022-08-19T10:32:03;0.77;;;0.77;;
63394;SDS011;49531;-34.520;150.798;2022-08-19T10:34:33;0.70;;;0.70;;
63394;SDS011;49531;-34.520;150.798;2022-08-19T10:37:02;0.80;;;0.80;;
63394;SDS011;49531;-34.520;150.798;2022-08-19T10:39:33;0.82;;;0.75;;
63394;SDS011;49531;-34.520;150.798;2022-08-19T10:42:07;1.13;;;0.77;;
63394;SDS011;49531;-34.520;150.798;2022-08-19T10:44:38;1.27;;;0.80;;
63394;SDS011;49531;-34.520;150.798;2022-08-19T10:47:06;0.70;;;0.70;;
63394;SDS011;49531;-34.520;150.798;2022-08-19T10:49:33;0.88;;;0.70;;
63394;SDS011;49531;-34.520;150.798;2022-08-19T10:52:20;0.93;;;0.80;;
63394;SDS011;49531;-34.520;150.798;2022-08-19T10:55:02;0.70;;;0.70;;
63394;SDS011;49531;-34.520;150.798;2022-08-19T10:57:49;0.70;;;0.70;;
63394;SDS011;49531;-34.520;150.798;2022-08-19T11:00:19;0.95;;;0.80;;
63394;SDS011;49531;-34.520;150.798;2022-08-19T11:02:48;0.65;;;0.65;;
63394;SDS011;49531;-34.520;150.798;2022-08-19T11:05:16;0.70;;;0.70;;
63394;SDS011;49531;-34.520;150.798;2022-08-19T11:07:44;0.85;;;0.70;;
63394;SDS011;49531;-34.520;150.798;2022-08-19T11:10:12;1.45;;;0.70;;
63394;SDS011;49531;-34.520;150.798;2022-08-19T11:12:41;1.40;;;0.70;;
63394;SDS011;49531;-34.520;150.798;2022-08-19T11:15:09;0.80;;;0.65;;
63394;SDS011;49531;-34.520;150.798;2022-08-19T11:17:37;0.95;;;0.65;;
63394;SDS011;49531;-34.520;150.798;2022-08-19T11:20:10;1.05;;;0.60;;
63394;SDS011;49531;-34.520;150.798;2022-08-19T11:22:38;0.70;;;0.60;;
63394;SDS011;49531;-34.520;150.798;2022-08-19T11:25:06;0.75;;;0.75;;
63394;SDS011;49531;-34.520;150.798;2022-08-19T11:27:41;0.70;;;0.70;;
63394;SDS011;49531;-34.520;150.798;2022-08-19T11:30:10;1.75;;;0.80;;
63394;SDS011;49531;-34.520;150.798;2022-08-19T11:32:42;1.48;;;0.60;;
63394;SDS011;49531;-34.520;150.798;2022-08-19T11:35:09;0.65;;;0.50;;
63394;SDS011;49531;-34.520;150.798;2022-08-19T11:37:36;0.80;;;0.75;;
63394;SDS011;49531;-34.520;150.798;2022-08-19T11:40:04;0.60;;;0.60;;
63394;SDS011;49531;-34.520;150.798;2022-08-19T11:42:32;0.93;;;0.70;;
63394;SDS011;49531;-34.520;150.798;2022-08-19T11:45:17;1.73;;;0.90;;
63394;SDS011;49531;-34.520;150.798;2022-08-19T11:47:44;0.70;;;0.65;;
63394;SDS011;49531;-34.520;150.798;2022-08-19T11:50:12;3.33;;;0.70;;
63394;SDS011;49531;-34.520;150.798;2022-08-19T11:52:40;0.60;;;0.60;;
63394;SDS011;49531;-34.520;150.798;2022-08-19T11:55:08;0.73;;;0.70;;
63394;SDS011;49531;-34.520;150.798;2022-08-19T11:57:35;0.70;;;0.70;;
63394;SDS011;49531;-34.520;150.798;2022-08-19T12:00:03;1.42;;;0.70;;
63394;SDS011;49531;-34.520;150.798;2022-08-19T12:02:32;0.60;;;0.50;;
63394;SDS011;49531;-34.520;150.798;2022-08-19T12:04:59;0.80;;;0.70;;
63394;SDS011;49531;-34.520;150.798;2022-08-19T12:07:29;0.88;;;0.70;;
63394;SDS011;49531;-34.520;150.798;2022-08-19T12:09:59;0.82;;;0.60;;
63394;SDS011;49531;-34.520;150.798;2022-08-19T12:12:27;1.42;;;0.70;;
63394;SDS011;49531;-34.520;150.798;2022-08-19T12:14:54;0.75;;;0.60;;
63394;SDS011;49531;-34.520;150.798;2022-08-19T12:17:24;0.93;;;0.60;;
63394;SDS011;49531;-34.520;150.798;2022-08-19T12:19:53;1.23;;;0.70;;
63394;SDS011;49531;-34.520;150.798;2022-08-19T12:22:20;1.20;;;0.63;;
63394;SDS011;49531;-34.520;150.798;2022-08-19T12:24:47;1.85;;;0.70;;
63394;SDS011;49531;-34.520;150.798;2022-08-19T12:27:16;0.57;;;0.57;;
63394;SDS011;49531;-34.520;150.798;2022-08-19T12:29:44;0.77;;;0.77;;
63394;SDS011;49531;-34.520;150.798;2022-08-19T12:32:11;1.95;;;0.80;;
63394;SDS011;49531;-34.520;150.798;2022-08-19T12:34:38;0.90;;;0.80;;
63394;SDS011;49531;-34.520;150.798;2022-08-19T12:37:06;2.05;;;0.70;;
63394;SDS011;49531;-34.520;150.798;2022-08-19T12:39:34;0.77;;;0.77;;
63394;SDS011;49531;-34.520;150.798;2022-08-19T12:42:03;1.60;;;0.70;;
63394;SDS011;49531;-34.520;150.798;2022-08-19T12:44:31;0.70;;;0.70;;
63394;SDS011;49531;-34.520;150.798;2022-08-19T12:46:58;1.23;;;0.73;;
63394;SDS011;49531;-34.520;150.798;2022-08-19T12:49:27;2.05;;;0.73;;
63394;SDS011;49531;-34.520;150.798;2022-08-19T12:51:55;1.50;;;0.70;;
63394;SDS011;49531;-34.520;150.798;2022-08-19T12:54:23;0.88;;;0.60;;
63394;SDS011;49531;-34.520;150.798;2022-08-19T12:56:50;1.45;;;0.70;;
63394;SDS011;49531;-34.520;150.798;2022-08-19T12:59:17;2.22;;;0.88;;
63394;SDS011;49531;-34.520;150.798;2022-08-19T13:01:44;1.88;;;0.70;;
63394;SDS011;49531;-34.520;150.798;2022-08-19T13:04:11;1.75;;;0.70;;
63394;SDS011;49531;-34.520;150.798;2022-08-19T13:06:38;2.33;;;0.80;;
63394;SDS011;49531;-34.520;150.798;2022-08-19T13:09:06;0.77;;;0.68;;
63394;SDS011;49531;-34.520;150.798;2022-08-19T13:11:33;2.30;;;0.70;;
63394;SDS011;49531;-34.520;150.798;2022-08-19T13:14:01;2.25;;;0.70;;
63394;SDS011;49531;-34.520;150.798;2022-08-19T13:16:29;2.28;;;0.80;;
63394;SDS011;49531;-34.520;150.798;2022-08-19T13:18:57;1.45;;;0.60;;
63394;SDS011;49531;-34.520;150.798;2022-08-19T13:21:25;2.00;;;0.70;;
63394;SDS011;49531;-34.520;150.798;2022-08-19T13:23:54;1.27;;;0.70;;
63394;SDS011;49531;-34.520;150.798;2022-08-19T13:26:21;1.80;;;0.70;;
63394;SDS011;49531;-34.520;150.798;2022-08-19T13:28:48;1.42;;;0.70;;
63394;SDS011;49531;-34.520;150.798;2022-08-19T13:31:34;1.60;;;0.70;;
63394;SDS011;49531;-34.520;150.798;2022-08-19T13:34:25;1.13;;;0.70;;
63394;SDS011;49531;-34.520;150.798;2022-08-19T13:36:55;1.67;;;0.60;;
63394;SDS011;49531;-34.520;150.798;2022-08-19T13:39:22;2.58;;;0.70;;
63394;SDS011;49531;-34.520;150.798;2022-08-19T13:41:49;0.60;;;0.60;;
63394;SDS011;49531;-34.520;150.798;2022-08-19T13:44:17;1.83;;;0.60;;
63394;SDS011;49531;-34.520;150.798;2022-08-19T13:46:45;1.83;;;0.70;;
63394;SDS011;49531;-34.520;150.798;2022-08-19T13:49:14;2.15;;;0.65;;
63394;SDS011;49531;-34.520;150.798;2022-08-19T13:51:42;1.60;;;0.70;;
63394;SDS011;49531;-34.520;150.798;2022-08-19T13:54:10;1.42;;;0.70;;
63394;SDS011;49531;-34.520;150.798;2022-08-19T13:56:41;1.52;;;0.70;;
63394;SDS011;49531;-34.520;150.798;2022-08-19T13:59:10;2.30;;;0.70;;
63394;SDS011;49531;-34.520;150.798;2022-08-19T14:01:38;1.33;;;0.60;;
63394;SDS011;49531;-34.520;150.798;2022-08-19T14:04:06;3.00;;;0.88;;
63394;SDS011;49531;-34.520;150.798;2022-08-19T14:06:34;2.08;;;0.80;;
63394;SDS011;49531;-34.520;150.798;2022-08-19T14:09:01;0.98;;;0.70;;
63394;SDS011;49531;-34.520;150.798;2022-08-19T14:11:30;0.90;;;0.60;;
63394;SDS011;49531;-34.520;150.798;2022-08-19T14:13:57;1.67;;;0.60;;
63394;SDS011;49531;-34.520;150.798;2022-08-19T14:16:24;2.60;;;0.70;;
63394;SDS011;49531;-34.520;150.798;2022-08-19T14:18:52;1.50;;;0.63;;
63394;SDS011;49531;-34.520;150.798;2022-08-19T14:21:21;2.00;;;0.60;;
63394;SDS011;49531;-34.520;150.798;2022-08-19T14:23:50;1.75;;;0.60;;
63394;SDS011;49531;-34.520;150.798;2022-08-19T14:26:18;1.08;;;0.50;;
63394;SDS011;49531;-34.520;150.798;2022-08-19T14:28:46;1.52;;;0.73;;
63394;SDS011;49531;-34.520;150.798;2022-08-19T14:31:15;1.40;;;0.63;;
63394;SDS011;49531;-34.520;150.798;2022-08-19T14:33:47;1.50;;;0.60;;